Time;durP1;ratioP1;P1;durP2;ratioP2;P2;SDS_P1;SDS_P2;PMS_P1;PMS_P2;Temp;Humidity;BMP_temperature;BMP_pressure;BME280_temperature;BME280_humidity;BME280_pressure;Samples;Min_cycle;Max_cycle;Signal;HPM_P1;HPM_P2
2022/12/04 00:01:22;;;;;;;1.73;1.63;;;20.10;99.90;;;;;;4994517;28;20198;-72
2022/12/04 00:03:52;;;;;;;3.90;1.42;;;20.20;99.90;;;;;;4995024;28;20656;-72
2022/12/04 00:06:23;;;;;;;1.55;1.45;;;20.10;99.90;;;;;;4995443;28;20557;-72
2022/12/04 00:08:51;;;;;;;2.58;1.38;;;19.80;99.90;;;;;;4994668;28;20191;-72
2022/12/04 00:11:20;;;;;;;1.33;1.33;;;20.40;99.90;;;;;;4994500;28;20289;-72
2022/12/04 00:13:48;;;;;;;1.00;1.00;;;20.10;99.90;;;;;;4994248;28;20600;-72
2022/12/04 00:16:17;;;;;;;1.40;1.40;;;20.10;99.90;;;;;;4994490;28;20213;-73
2022/12/04 00:18:44;;;;;;;1.17;1.02;;;20.00;99.90;;;;;;4994197;28;20203;-73
2022/12/04 00:21:13;;;;;;;1.10;1.10;;;20.10;99.90;;;;;;4993995;28;20208;-73
2022/12/04 00:23:41;;;;;;;1.60;1.38;;;19.70;99.90;;;;;;4994281;28;20273;-73
2022/12/04 00:26:09;;;;;;;2.05;1.08;;;20.00;99.90;;;;;;4994356;28;20233;-73
2022/12/04 00:28:37;;;;;;;1.33;1.33;;;20.30;99.90;;;;;;4994288;28;20202;-72
2022/12/04 00:31:10;;;;;;;1.30;1.30;;;20.00;99.90;;;;;;4994358;28;20206;-74
2022/12/04 08:10:07;;;;;;;1.08;0.30;;;20.00;99.90;;;;;;4974714;28;20210;-75
2022/12/04 08:12:34;;;;;;;0.40;0.40;;;20.00;99.90;;;;;;4975327;28;20195;-72
2022/12/04 08:15:01;;;;;;;2.33;0.45;;;20.00;99.90;;;;;;4975353;28;20222;-72
2022/12/04 08:17:28;;;;;;;0.43;0.40;;;20.00;99.90;;;;;;4975270;28;20226;-72
2022/12/04 08:19:55;;;;;;;0.40;0.40;;;20.00;99.90;;;;;;4975416;28;20733;-73
2022/12/04 08:22:21;;;;;;;0.40;0.40;;;20.10;99.90;;;;;;4975903;28;20226;-73
2022/12/04 08:24:48;;;;;;;0.30;0.30;;;20.10;99.90;;;;;;4975186;28;20203;-74
2022/12/04 08:27:16;;;;;;;1.83;0.40;;;20.10;99.90;;;;;;4975066;28;20222;-74
2022/12/04 08:29:43;;;;;;;0.30;0.30;;;20.20;99.90;;;;;;4974769;28;20689;-74
2022/12/04 08:32:10;;;;;;;0.30;0.30;;;20.20;99.90;;;;;;4975054;28;20207;-73
2022/12/04 08:34:36;;;;;;;1.55;0.90;;;20.30;99.90;;;;;;4975178;28;20214;-74
2022/12/04 08:37:03;;;;;;;2.85;2.65;;;20.30;99.90;;;;;;4974869;28;20219;-74
2022/12/04 08:39:30;;;;;;;6.40;3.05;;;20.20;99.90;;;;;;4974656;28;20577;-74
2022/12/04 08:41:56;;;;;;;4.25;3.92;;;20.10;99.90;;;;;;4974797;28;20218;-73
2022/12/04 08:44:25;;;;;;;14.68;8.82;;;20.00;99.90;;;;;;4974823;28;20226;-73
2022/12/04 08:46:51;;;;;;;27.98;11.75;;;19.90;99.90;;;;;;4974753;28;20230;-74
2022/12/04 08:49:18;;;;;;;25.92;11.25;;;19.90;99.90;;;;;;4974775;28;20210;-73
2022/12/04 08:51:45;;;;;;;20.63;10.80;;;19.90;99.90;;;;;;4974467;28;20566;-73
2022/12/04 08:54:13;;;;;;;23.70;10.30;;;19.90;99.90;;;;;;4974792;28;20199;-76
2022/12/04 08:56:40;;;;;;;20.27;9.95;;;19.80;99.90;;;;;;4974440;28;20721;-76
2022/12/04 08:59:07;;;;;;;24.83;10.43;;;19.80;99.90;;;;;;4974577;28;20574;-74
2022/12/04 09:01:35;;;;;;;19.67;9.55;;;19.80;99.90;;;;;;4974771;28;20203;-74
2022/12/04 09:04:02;;;;;;;20.88;10.20;;;19.80;99.90;;;;;;4974743;28;20268;-74
2022/12/04 09:06:28;;;;;;;16.33;8.93;;;19.80;99.90;;;;;;4974630;28;20206;-75
2022/12/04 09:08:56;;;;;;;18.52;8.20;;;19.80;99.90;;;;;;4975760;28;20202;-75
2022/12/04 09:11:26;;;;;;;19.70;8.70;;;19.80;99.90;;;;;;4978642;28;20187;-74
2022/12/04 09:13:54;;;;;;;19.95;8.45;;;19.90;99.90;;;;;;4978888;28;20278;-73
2022/12/04 09:16:22;;;;;;;17.27;7.57;;;19.90;99.90;;;;;;4978619;28;20210;-73
2022/12/04 09:18:51;;;;;;;19.95;8.75;;;19.90;99.90;;;;;;4978617;28;20207;-74
2022/12/04 09:21:20;;;;;;;25.85;9.10;;;20.00;99.90;;;;;;4978209;28;20612;-72
2022/12/04 09:23:47;;;;;;;20.40;8.35;;;19.90;99.90;;;;;;4978498;28;20306;-72
2022/12/04 09:26:20;;;;;;;20.33;8.15;;;19.90;99.90;;;;;;4978176;28;20733;-72
2022/12/04 09:28:48;;;;;;;15.85;7.80;;;19.90;99.90;;;;;;4978314;28;20270;-72
2022/12/04 09:31:16;;;;;;;23.00;7.88;;;19.90;99.90;;;;;;4978217;28;20207;-72
2022/12/04 09:33:43;;;;;;;19.85;8.05;;;19.90;99.90;;;;;;4977921;28;20199;-72
2022/12/04 09:36:14;;;;;;;21.45;8.07;;;19.80;99.90;;;;;;4977583;28;20670;-72
2022/12/04 09:38:43;;;;;;;21.23;7.90;;;19.80;99.90;;;;;;4977804;28;20192;-73
2022/12/04 09:41:41;;;;;;;15.48;6.63;;;19.80;99.90;;;;;;4977854;28;20253;-73
2022/12/04 09:44:15;;;;;;;18.33;8.20;;;19.80;99.90;;;;;;4958030;28;20322;-73
2022/12/04 09:46:49;;;;;;;20.10;7.20;;;19.70;99.90;;;;;;4977818;28;20229;-73
2022/12/04 09:49:20;;;;;;;21.08;7.28;;;19.70;99.90;;;;;;4977311;28;20582;-73
2022/12/04 09:51:50;;;;;;;18.27;6.70;;;19.70;99.90;;;;;;4977500;28;20188;-73
2022/12/04 09:54:20;;;;;;;14.23;6.45;;;19.70;99.90;;;;;;4977609;28;20210;-72
2022/12/04 09:56:54;;;;;;;18.65;7.55;;;19.70;99.90;;;;;;4977538;28;20223;-72
2022/12/04 09:59:24;;;;;;;13.02;6.88;;;19.80;99.90;;;;;;4977183;28;20646;-73
2022/12/04 10:01:55;;;;;;;19.80;6.78;;;19.80;99.90;;;;;;4977467;28;20191;-72
2022/12/04 10:04:22;;;;;;;22.40;8.43;;;19.90;99.90;;;;;;4977460;28;20230;-72
2022/12/04 10:06:57;;;;;;;31.63;8.88;;;19.90;99.90;;;;;;4977342;28;20219;-72
2022/12/04 10:09:31;;;;;;;35.80;10.38;;;20.10;99.90;;;;;;4977600;28;20244;-71
2022/12/04 10:12:07;;;;;;;50.58;12.55;;;20.00;99.90;;;;;;4976982;28;20214;-72
2022/12/04 10:14:49;;;;;;;38.67;10.63;;;19.90;99.90;;;;;;4976961;28;20187;-74
2022/12/04 10:17:44;;;;;;;51.25;11.70;;;19.90;99.40;;;;;;4976806;28;20226;-75
2022/12/04 10:20:21;;;;;;;33.83;10.35;;;19.70;98.10;;;;;;4976360;28;20317;-75
2022/12/04 10:22:56;;;;;;;32.85;9.30;;;19.90;97.30;;;;;;4976941;28;20221;-73
2022/12/04 10:25:25;;;;;;;33.47;10.60;;;19.70;96.70;;;;;;4976556;28;20189;-72
2022/12/04 10:27:56;;;;;;;31.83;9.98;;;19.60;96.60;;;;;;4977384;28;20226;-72
2022/12/04 10:30:25;;;;;;;32.92;10.15;;;19.60;96.50;;;;;;4976705;28;20183;-72
2022/12/04 10:32:58;;;;;;;28.33;9.27;;;19.70;96.80;;;;;;4977323;28;20199;-72
2022/12/04 10:35:28;;;;;;;33.85;10.45;;;19.60;96.90;;;;;;4977068;28;20191;-71
2022/12/04 10:38:02;;;;;;;37.50;11.57;;;19.70;97.00;;;;;;4978219;28;20222;-72
2022/12/04 10:40:33;;;;;;;31.40;9.20;;;19.60;96.70;;;;;;4976757;28;20191;-71
2022/12/04 10:43:05;;;;;;;34.10;10.95;;;19.70;96.70;;;;;;4976633;28;20211;-71
2022/12/04 10:45:32;;;;;;;48.30;14.32;;;19.70;96.80;;;;;;4976410;28;20255;-71
2022/12/04 10:48:00;;;;;;;75.20;16.83;;;19.80;97.10;;;;;;4976084;28;20230;-71
2022/12/04 10:50:26;;;;;;;76.32;17.83;;;19.90;97.00;;;;;;4976164;28;20567;-70
2022/12/04 10:52:53;;;;;;;90.88;20.85;;;20.00;97.10;;;;;;4976187;28;20207;-71
2022/12/04 10:55:32;;;;;;;91.13;21.88;;;20.00;97.10;;;;;;4976214;28;20206;-71
2022/12/04 10:58:01;;;;;;;104.72;23.35;;;20.00;97.00;;;;;;4976689;28;20223;-72
2022/12/04 11:00:31;;;;;;;98.68;24.98;;;20.10;97.00;;;;;;4976307;28;20210;-72
2022/12/04 11:03:00;;;;;;;108.63;26.05;;;20.00;96.90;;;;;;4976532;28;20222;-71
2022/12/04 11:05:31;;;;;;;103.38;24.73;;;20.00;96.90;;;;;;4976694;28;20214;-71
2022/12/04 11:07:59;;;;;;;98.78;25.58;;;20.00;96.90;;;;;;4976633;28;20226;-72
2022/12/04 11:10:34;;;;;;;107.03;25.98;;;20.00;97.10;;;;;;4976542;28;20229;-72
2022/12/04 11:13:03;;;;;;;91.65;26.27;;;20.00;97.10;;;;;;4977125;28;20216;-71
2022/12/04 11:15:30;;;;;;;93.50;24.25;;;20.10;97.20;;;;;;4976431;28;20202;-71
2022/12/04 11:18:07;;;;;;;88.78;23.20;;;20.10;97.20;;;;;;4975980;28;20721;-72
2022/12/04 11:20:34;;;;;;;90.28;23.95;;;20.10;97.20;;;;;;4976395;28;20191;-72
2022/12/04 11:23:01;;;;;;;89.30;25.85;;;20.00;97.20;;;;;;4976200;28;20222;-74
2022/12/04 11:25:47;;;;;;;81.18;26.45;;;20.00;97.30;;;;;;4976180;28;20198;-73
2022/12/04 11:28:17;;;;;;;110.93;28.33;;;20.10;97.70;;;;;;4976115;28;20226;-73
2022/12/04 11:30:50;;;;;;;95.97;25.65;;;20.10;97.90;;;;;;4976099;28;20207;-73
2022/12/04 11:33:19;;;;;;;85.82;24.92;;;20.10;98.20;;;;;;4976050;28;20270;-73
2022/12/04 11:35:52;;;;;;;91.82;24.25;;;20.10;98.40;;;;;;4976085;28;20191;-73
2022/12/04 11:38:20;;;;;;;71.82;23.10;;;20.20;98.60;;;;;;4975866;28;20223;-73
2022/12/04 11:40:50;;;;;;;84.20;24.00;;;20.20;98.60;;;;;;4975867;28;20574;-75
2022/12/04 11:43:18;;;;;;;80.03;24.77;;;20.20;98.60;;;;;;4975558;28;20582;-74
2022/12/04 11:45:55;;;;;;;75.22;22.80;;;20.20;98.60;;;;;;4975565;28;20191;-73
2022/12/04 11:48:22;;;;;;;80.18;21.45;;;20.20;98.70;;;;;;4976149;28;20223;-74
2022/12/04 11:50:56;;;;;;;74.82;21.60;;;20.30;99.30;;;;;;4976481;28;20265;-74
2022/12/04 11:53:31;;;;;;;75.00;21.85;;;20.20;99.40;;;;;;4976394;28;20187;-73
2022/12/04 11:56:22;;;;;;;80.93;23.15;;;20.40;99.90;;;;;;4976519;28;20183;-73
2022/12/04 11:59:14;;;;;;;62.65;20.67;;;20.30;99.70;;;;;;4976066;28;20578;-71
2022/12/04 12:01:47;;;;;;;67.22;21.52;;;20.20;99.90;;;;;;4975345;28;20278;-72
2022/12/04 12:04:50;;;;;;;62.90;20.42;;;20.30;99.90;;;;;;4975439;28;20207;-71
2022/12/04 12:07:31;;;;;;;69.75;20.63;;;20.30;99.90;;;;;;4969875;28;20230;-72
2022/12/04 12:10:04;;;;;;;63.08;20.38;;;20.30;99.90;;;;;;4973859;28;20682;-72
2022/12/04 12:12:41;;;;;;;63.65;20.88;;;20.20;99.90;;;;;;4975138;28;20274;-72
2022/12/04 12:15:23;;;;;;;58.47;19.63;;;20.30;99.90;;;;;;4975070;28;20182;-72
2022/12/04 12:17:59;;;;;;;57.83;19.50;;;20.10;99.90;;;;;;4974905;28;20229;-72
2022/12/04 12:20:32;;;;;;;56.40;19.30;;;20.20;99.90;;;;;;4974979;28;20218;-72
2022/12/04 12:23:15;;;;;;;57.95;19.35;;;20.10;99.90;;;;;;4975195;28;20194;-71
2022/12/04 12:25:53;;;;;;;57.53;18.95;;;20.10;99.90;;;;;;4975149;28;20217;-71
2022/12/04 12:28:37;;;;;;;62.08;18.92;;;20.00;99.90;;;;;;4974776;28;20258;-71
2022/12/04 12:31:18;;;;;;;48.17;16.95;;;20.00;99.90;;;;;;4975121;28;20195;-71
2022/12/04 12:33:52;;;;;;;53.10;16.83;;;19.90;99.90;;;;;;4974765;28;20190;-71
2022/12/04 12:36:24;;;;;;;47.47;16.40;;;20.00;99.90;;;;;;4975759;28;20187;-71
2022/12/04 12:38:56;;;;;;;49.60;17.38;;;19.90;99.90;;;;;;4974956;28;20191;-71
2022/12/04 12:41:27;;;;;;;42.67;16.65;;;20.00;99.90;;;;;;4974915;28;20187;-71
2022/12/04 12:44:03;;;;;;;47.55;15.35;;;19.90;99.90;;;;;;4973980;28;20237;-72
2022/12/04 12:46:37;;;;;;;45.85;16.85;;;19.90;99.90;;;;;;4974859;28;20190;-71
2022/12/04 12:49:12;;;;;;;51.78;15.93;;;19.80;99.90;;;;;;4974907;28;20245;-71
2022/12/04 12:51:45;;;;;;;43.60;16.02;;;19.90;99.90;;;;;;4974899;28;20190;-71
2022/12/04 12:54:30;;;;;;;47.97;15.13;;;19.80;99.90;;;;;;4974564;28;20191;-72
2022/12/04 12:57:05;;;;;;;51.65;15.07;;;19.90;99.90;;;;;;4974355;28;20227;-74
2022/12/04 12:59:37;;;;;;;52.13;13.88;;;19.80;99.90;;;;;;4974831;28;20256;-74
2022/12/04 13:02:15;;;;;;;47.20;14.90;;;19.80;99.90;;;;;;4974392;28;20642;-74
2022/12/04 13:04:44;;;;;;;37.72;14.32;;;19.80;99.90;;;;;;4975318;28;20210;-74
2022/12/04 13:07:26;;;;;;;46.10;14.38;;;19.80;99.90;;;;;;4974401;28;20219;-75
2022/12/04 13:10:00;;;;;;;42.20;14.13;;;19.80;99.90;;;;;;4974347;28;20582;-75
2022/12/04 13:12:27;;;;;;;37.70;14.15;;;19.80;99.90;;;;;;4974430;28;20191;-74
2022/12/04 13:14:56;;;;;;;43.63;13.32;;;19.90;99.90;;;;;;4974617;28;20198;-74
2022/12/04 13:17:31;;;;;;;34.38;13.35;;;19.80;99.90;;;;;;4974482;28;20626;-74
2022/12/04 13:20:02;;;;;;;38.05;13.65;;;19.80;99.90;;;;;;4975016;28;20197;-74
2022/12/04 13:22:40;;;;;;;33.92;13.13;;;19.80;99.90;;;;;;4974649;28;20205;-74
2022/12/04 13:25:30;;;;;;;42.63;13.45;;;19.80;99.90;;;;;;4974243;28;20649;-74
2022/12/04 13:28:09;;;;;;;31.25;12.23;;;19.80;99.90;;;;;;4974455;28;20222;-74
2022/12/04 13:30:47;;;;;;;32.30;12.07;;;19.80;99.90;;;;;;4974247;28;20187;-73
2022/12/04 13:33:44;;;;;;;30.02;11.52;;;19.80;99.90;;;;;;4975352;28;20193;-73
2022/12/04 13:36:46;;;;;;;27.95;11.23;;;19.90;99.90;;;;;;4973062;28;20207;-73
2022/12/04 13:39:53;;;;;;;30.63;11.82;;;19.90;99.90;;;;;;4935517;28;20206;-72
2022/12/04 13:42:23;;;;;;;37.70;11.07;;;19.90;99.90;;;;;;4974712;28;20649;-74
2022/12/04 13:44:56;;;;;;;24.50;11.05;;;19.80;99.90;;;;;;4975392;28;20211;-74
2022/12/04 13:47:31;;;;;;;32.00;11.10;;;19.80;99.90;;;;;;4974982;28;20234;-73
2022/12/04 13:50:27;;;;;;;29.48;10.82;;;19.70;99.90;;;;;;4977618;28;20186;-73
2022/12/04 13:52:54;;;;;;;30.83;11.40;;;19.70;99.90;;;;;;4976173;28;20203;-74
2022/12/04 13:55:30;;;;;;;23.90;11.18;;;19.70;99.90;;;;;;4976836;28;20195;-73
2022/12/04 13:57:59;;;;;;;29.52;10.45;;;19.70;99.90;;;;;;4979763;28;20226;-73
2022/12/04 14:00:30;;;;;;;21.20;9.93;;;19.70;99.90;;;;;;4978716;28;20207;-77
2022/12/04 14:03:00;;;;;;;29.77;9.93;;;19.70;99.90;;;;;;4978903;28;20229;-73
2022/12/04 14:05:31;;;;;;;24.67;9.80;;;19.80;99.90;;;;;;4978125;28;20245;-73
2022/12/04 14:08:04;;;;;;;26.17;9.70;;;19.70;99.90;;;;;;4979729;28;20691;-73
2022/12/04 14:10:34;;;;;;;30.33;9.70;;;19.70;99.90;;;;;;4980074;28;20219;-73
2022/12/04 14:13:05;;;;;;;22.50;9.13;;;19.80;99.90;;;;;;4977776;28;20195;-74
2022/12/04 14:15:34;;;;;;;26.80;10.35;;;19.70;99.90;;;;;;4977303;28;20649;-74
2022/12/04 14:18:06;;;;;;;22.33;9.40;;;19.70;99.90;;;;;;4977475;28;20225;-74
2022/12/04 14:20:34;;;;;;;26.63;9.25;;;19.70;99.90;;;;;;4979137;28;20198;-74
2022/12/04 14:23:10;;;;;;;23.88;10.05;;;19.70;99.90;;;;;;4980647;28;20199;-77
2022/12/04 14:25:38;;;;;;;25.40;9.18;;;19.70;99.90;;;;;;4978026;28;20210;-76
2022/12/04 14:28:26;;;;;;;22.98;8.82;;;19.70;99.90;;;;;;4977395;28;20223;-73
2022/12/04 14:31:12;;;;;;;19.88;8.35;;;19.80;99.90;;;;;;4979565;28;20206;-76
2022/12/04 14:33:47;;;;;;;24.50;9.23;;;19.70;99.90;;;;;;4985170;28;20207;-74
2022/12/04 14:36:19;;;;;;;20.88;9.60;;;19.90;99.90;;;;;;4981102;28;20240;-72
2022/12/04 14:38:48;;;;;;;21.77;9.05;;;19.70;99.90;;;;;;4978468;28;20198;-73
2022/12/04 14:41:24;;;;;;;18.70;9.05;;;19.80;99.90;;;;;;4979961;28;20544;-73
2022/12/04 14:43:51;;;;;;;25.98;9.02;;;19.70;99.90;;;;;;4978230;28;20190;-73
2022/12/04 14:46:25;;;;;;;19.55;8.02;;;19.70;99.90;;;;;;4980473;28;20207;-78
2022/12/04 14:49:04;;;;;;;20.98;8.63;;;19.70;99.90;;;;;;4978659;28;20321;-77
2022/12/04 14:51:35;;;;;;;22.30;8.20;;;19.60;99.90;;;;;;4977770;28;20641;-77
2022/12/04 14:54:13;;;;;;;24.20;8.93;;;19.60;99.90;;;;;;4976912;28;20570;-77
2022/12/04 14:56:59;;;;;;;17.35;9.23;;;19.50;99.90;;;;;;4977531;28;20233;-77
2022/12/04 14:59:40;;;;;;;16.45;8.55;;;19.40;99.90;;;;;;4983741;28;20202;-78
2022/12/04 15:02:12;;;;;;;30.27;8.50;;;19.50;99.90;;;;;;4977580;28;20222;-78
2022/12/04 15:04:45;;;;;;;18.13;7.78;;;19.40;99.90;;;;;;4980963;28;20674;-78
2022/12/04 15:07:17;;;;;;;15.45;7.68;;;19.40;99.90;;;;;;4977961;28;20227;-77
2022/12/04 15:12:41;;;;;;;23.58;7.30;;;19.20;99.90;;;;;;4978536;28;20205;-77
2022/12/04 15:15:21;;;;;;;19.25;8.70;;;19.20;99.90;;;;;;4979190;28;20195;-80
2022/12/04 15:17:58;;;;;;;19.08;7.32;;;19.20;99.90;;;;;;4980222;28;20268;-81
2022/12/04 15:20:29;;;;;;;17.17;7.63;;;19.30;99.90;;;;;;4979521;28;20214;-82
2022/12/04 15:22:57;;;;;;;22.83;7.25;;;19.10;99.90;;;;;;4979602;28;20565;-77
2022/12/04 15:25:27;;;;;;;17.30;7.53;;;19.10;99.90;;;;;;4980089;28;20691;-78
2022/12/04 15:28:02;;;;;;;17.90;8.07;;;19.10;99.90;;;;;;4982177;28;20226;-79
2022/12/04 15:30:30;;;;;;;14.23;7.95;;;19.20;99.90;;;;;;4988177;28;20189;-79
2022/12/04 15:32:58;;;;;;;15.98;6.88;;;19.30;99.90;;;;;;4991462;28;20205;-79
2022/12/04 15:35:33;;;;;;;15.85;7.43;;;19.20;99.90;;;;;;4990328;28;20543;-79
2022/12/04 15:38:00;;;;;;;15.25;7.80;;;19.00;99.90;;;;;;4985390;28;20225;-80
2022/12/04 15:40:29;;;;;;;14.18;7.03;;;19.00;99.90;;;;;;4992052;28;20191;-78
2022/12/04 15:43:13;;;;;;;17.35;7.63;;;19.00;99.90;;;;;;4988038;28;20202;-81
2022/12/04 15:45:40;;;;;;;26.77;8.27;;;19.10;99.90;;;;;;4988506;28;20222;-80
2022/12/04 15:48:07;;;;;;;14.45;7.20;;;19.30;99.90;;;;;;4989512;28;20225;-80
2022/12/04 15:50:35;;;;;;;17.67;7.15;;;19.20;99.90;;;;;;4991109;28;20202;-80
2022/12/04 15:53:07;;;;;;;24.00;7.72;;;19.20;99.90;;;;;;4991831;28;20209;-80
2022/12/04 15:55:38;;;;;;;28.67;7.70;;;19.30;99.90;;;;;;4992877;28;20179;-80
2022/12/04 15:58:08;;;;;;;24.25;6.95;;;19.30;99.90;;;;;;4992307;28;20242;-80
2022/12/04 16:00:38;;;;;;;23.73;7.63;;;19.30;99.90;;;;;;4992786;28;20181;-80
2022/12/04 16:03:18;;;;;;;23.88;7.97;;;19.40;99.90;;;;;;4992989;28;20213;-80
2022/12/04 16:05:47;;;;;;;24.38;7.13;;;19.40;99.90;;;;;;4989762;28;20210;-79
2022/12/04 16:08:25;;;;;;;26.73;7.60;;;19.20;99.90;;;;;;4990298;28;20725;-78
2022/12/04 16:10:57;;;;;;;22.75;7.28;;;19.30;99.90;;;;;;4988843;28;20275;-80
2022/12/04 16:13:30;;;;;;;31.25;7.80;;;19.40;99.90;;;;;;4989612;28;20207;-80
2022/12/04 16:15:58;;;;;;;26.73;7.18;;;19.30;99.90;;;;;;4987857;28;20203;-80
2022/12/04 16:18:26;;;;;;;24.25;7.03;;;19.50;99.90;;;;;;4985713;28;20223;-80
2022/12/04 16:20:54;;;;;;;21.85;7.00;;;19.30;99.90;;;;;;4987351;28;20209;-80
2022/12/04 16:23:24;;;;;;;20.38;7.40;;;19.20;99.90;;;;;;4986728;28;20209;-79
2022/12/04 16:25:50;;;;;;;27.08;6.88;;;19.10;99.90;;;;;;4982937;28;20250;-81
2022/12/04 16:28:17;;;;;;;34.17;7.40;;;19.20;99.90;;;;;;4982615;28;20233;-81
2022/12/04 16:30:44;;;;;;;21.55;7.28;;;19.10;99.90;;;;;;4983246;28;20203;-79
2022/12/04 16:33:14;;;;;;;20.75;6.65;;;19.30;99.90;;;;;;4980649;28;20214;-77
2022/12/04 16:35:40;;;;;;;21.42;7.03;;;19.20;99.90;;;;;;4981047;28;20199;-78
2022/12/04 16:38:14;;;;;;;26.80;8.13;;;19.10;99.90;;;;;;4980722;28;20318;-78
2022/12/04 16:40:41;;;;;;;18.15;7.78;;;19.30;99.90;;;;;;4981684;28;20595;-77
2022/12/04 16:43:11;;;;;;;23.27;7.03;;;19.10;99.90;;;;;;4980925;28;20207;-78
2022/12/04 16:45:38;;;;;;;22.50;7.82;;;19.10;99.90;;;;;;4979385;28;20226;-78
2022/12/04 16:48:05;;;;;;;19.73;7.03;;;19.10;99.90;;;;;;4985029;28;20225;-79
2022/12/04 16:50:32;;;;;;;18.75;7.05;;;19.10;99.90;;;;;;4980715;28;20202;-78
2022/12/04 16:52:59;;;;;;;26.83;7.20;;;19.10;99.90;;;;;;4983976;28;20198;-79
2022/12/04 16:55:32;;;;;;;26.15;7.07;;;19.10;99.90;;;;;;4979806;28;20198;-78
2022/12/04 16:57:59;;;;;;;15.38;7.10;;;19.10;99.90;;;;;;4978302;28;20721;-78
2022/12/04 17:00:25;;;;;;;20.08;7.40;;;19.00;99.90;;;;;;4977183;28;20211;-79
2022/12/04 17:02:52;;;;;;;23.05;7.40;;;19.00;99.90;;;;;;4976854;28;20206;-76
2022/12/04 17:05:21;;;;;;;22.00;9.30;;;19.00;99.90;;;;;;4975344;28;20219;-79
2022/12/04 17:07:48;;;;;;;22.60;12.23;;;19.00;99.90;;;;;;4975849;28;20229;-74
2022/12/04 17:10:16;;;;;;;30.48;12.30;;;19.00;99.90;;;;;;4975464;28;20609;-75
2022/12/04 17:12:44;;;;;;;21.23;11.38;;;18.90;99.90;;;;;;4977621;28;20203;-76
2022/12/04 17:15:12;;;;;;;17.23;9.95;;;18.80;99.90;;;;;;4977000;28;20209;-74
2022/12/04 17:17:40;;;;;;;24.95;10.85;;;18.90;99.90;;;;;;4976303;28;20764;-74
2022/12/04 17:20:10;;;;;;;21.65;9.77;;;19.20;99.90;;;;;;4976902;28;20203;-74
2022/12/04 17:22:37;;;;;;;18.77;9.70;;;19.20;99.90;;;;;;4977172;28;20194;-75
2022/12/04 17:25:05;;;;;;;17.77;9.93;;;19.30;99.90;;;;;;4976751;28;20226;-76
2022/12/04 17:27:32;;;;;;;26.42;9.18;;;19.50;99.90;;;;;;4976607;28;20229;-78
2022/12/04 17:30:00;;;;;;;17.02;8.70;;;19.60;99.90;;;;;;4978948;28;20202;-77
2022/12/04 17:32:30;;;;;;;16.90;8.65;;;19.80;99.90;;;;;;4985708;28;20293;-78
2022/12/04 17:34:57;;;;;;;20.98;8.35;;;19.80;99.90;;;;;;4984585;28;20199;-77
2022/12/04 17:37:26;;;;;;;21.42;8.30;;;19.90;99.90;;;;;;4986035;28;20223;-77
2022/12/04 17:39:53;;;;;;;16.42;8.60;;;20.00;99.90;;;;;;4986962;28;20202;-76
2022/12/04 17:42:21;;;;;;;19.30;8.80;;;20.00;99.90;;;;;;4988062;28;20311;-76
2022/12/04 17:44:48;;;;;;;12.50;7.45;;;20.10;99.90;;;;;;4987605;28;20222;-77
2022/12/04 17:47:17;;;;;;;15.95;7.15;;;20.10;99.90;;;;;;4986618;28;20249;-77
2022/12/04 17:49:44;;;;;;;11.70;7.47;;;20.20;99.90;;;;;;4985167;28;20207;-74
2022/12/04 17:52:11;;;;;;;19.95;7.97;;;20.30;99.90;;;;;;4979925;28;20678;-74
2022/12/04 17:54:38;;;;;;;10.15;6.53;;;20.20;99.90;;;;;;4978125;28;20639;-73
2022/12/04 17:57:05;;;;;;;14.25;6.80;;;20.10;99.90;;;;;;4985557;28;20223;-74
2022/12/04 17:59:33;;;;;;;13.30;7.22;;;20.10;99.90;;;;;;4979610;28;20226;-73
2022/12/04 18:02:00;;;;;;;14.05;7.18;;;20.00;99.90;;;;;;4979351;28;20531;-74
2022/12/04 18:04:28;;;;;;;14.55;7.93;;;19.90;99.90;;;;;;4984804;28;20214;-74
2022/12/04 18:06:56;;;;;;;11.90;7.00;;;19.90;99.90;;;;;;4981317;28;20663;-74
2022/12/04 18:09:23;;;;;;;13.85;6.57;;;19.90;99.90;;;;;;4983196;28;20210;-75
2022/12/04 18:11:50;;;;;;;12.98;7.40;;;19.80;99.90;;;;;;4983754;28;20187;-76
2022/12/04 18:14:20;;;;;;;13.75;6.68;;;19.80;99.90;;;;;;4983705;28;20219;-74
2022/12/04 18:16:53;;;;;;;12.45;6.82;;;19.70;99.90;;;;;;4987675;28;20631;-75
2022/12/04 18:19:22;;;;;;;19.70;6.95;;;19.70;99.90;;;;;;4987486;28;20699;-73
2022/12/04 18:21:52;;;;;;;26.17;7.43;;;19.70;99.90;;;;;;4985429;28;20186;-75
2022/12/04 18:24:21;;;;;;;18.08;8.15;;;19.80;99.90;;;;;;4987758;28;20550;-75
2022/12/04 18:26:51;;;;;;;18.02;7.00;;;19.90;99.90;;;;;;4986708;28;20230;-73
2022/12/04 18:29:20;;;;;;;15.18;7.25;;;20.00;99.90;;;;;;4986716;28;20190;-74
2022/12/04 18:31:50;;;;;;;19.17;7.07;;;20.00;99.90;;;;;;4986643;28;20207;-74
2022/12/04 18:34:18;;;;;;;20.05;7.32;;;20.00;99.90;;;;;;4985799;28;20548;-73
2022/12/04 18:36:45;;;;;;;18.02;6.72;;;20.00;99.90;;;;;;4984822;28;20226;-72
2022/12/04 18:39:17;;;;;;;29.60;7.60;;;20.10;99.90;;;;;;4977784;28;20560;-78
2022/12/04 18:41:44;;;;;;;29.15;7.25;;;20.30;99.90;;;;;;4977014;28;20198;-76
2022/12/04 18:44:12;;;;;;;29.90;7.15;;;20.00;99.90;;;;;;4976708;28;20667;-75
2022/12/04 18:46:39;;;;;;;34.45;8.07;;;20.10;99.90;;;;;;4976723;28;20219;-75
2022/12/04 18:49:07;;;;;;;22.20;7.53;;;20.00;99.90;;;;;;4976899;28;20210;-74
2022/12/04 18:51:36;;;;;;;22.88;7.07;;;19.90;99.90;;;;;;4976623;28;20734;-72
2022/12/04 18:54:06;;;;;;;22.98;6.88;;;19.80;99.90;;;;;;4976927;28;20194;-74
2022/12/04 18:56:35;;;;;;;29.27;7.70;;;19.70;99.90;;;;;;4976786;28;20198;-72
2022/12/04 18:59:04;;;;;;;16.40;6.55;;;19.70;99.90;;;;;;4976796;28;20199;-74
2022/12/04 19:01:31;;;;;;;24.48;7.07;;;19.70;99.90;;;;;;4976621;28;20203;-74
2022/12/04 19:04:01;;;;;;;22.35;7.05;;;19.60;99.90;;;;;;4976686;28;20203;-73
2022/12/04 19:06:30;;;;;;;31.50;7.60;;;19.60;99.90;;;;;;4976482;28;20210;-72
2022/12/04 19:08:59;;;;;;;16.42;6.75;;;19.50;99.90;;;;;;4976409;28;20199;-73
2022/12/04 19:11:26;;;;;;;17.63;7.22;;;19.50;99.90;;;;;;4976502;28;20191;-72
2022/12/04 19:13:54;;;;;;;17.92;6.82;;;19.50;99.90;;;;;;4976429;28;20214;-74
2022/12/04 19:16:21;;;;;;;21.40;6.70;;;19.50;99.90;;;;;;4976343;28;20216;-75
2022/12/04 19:18:48;;;;;;;16.48;6.78;;;19.50;99.90;;;;;;5001834;23;20237;-76
2022/12/04 19:21:16;;;;;;;17.67;6.30;;;19.40;99.90;;;;;;4995604;28;20669;-76
2022/12/04 19:23:49;;;;;;;14.48;6.30;;;19.40;99.90;;;;;;4995703;28;20202;-76
2022/12/04 19:26:15;;;;;;;18.15;7.60;;;19.50;99.90;;;;;;4995336;28;20738;-76
2022/12/04 19:28:42;;;;;;;18.13;7.45;;;19.50;99.90;;;;;;4995563;28;20222;-75
2022/12/04 19:31:15;;;;;;;20.73;6.88;;;19.50;99.90;;;;;;4995251;28;20568;-75
2022/12/04 19:33:42;;;;;;;22.58;7.68;;;19.50;99.90;;;;;;4995299;28;20561;-76
2022/12/04 19:36:12;;;;;;;26.20;8.00;;;19.50;99.90;;;;;;4995190;28;20597;-75
2022/12/04 19:38:39;;;;;;;18.73;7.53;;;19.50;99.90;;;;;;4995318;28;20226;-75
2022/12/04 19:41:08;;;;;;;19.77;7.72;;;19.50;99.90;;;;;;4995395;28;20202;-75
2022/12/04 19:43:36;;;;;;;19.75;7.97;;;19.50;99.90;;;;;;4995016;28;20245;-76
2022/12/04 19:46:03;;;;;;;25.92;8.70;;;19.50;99.90;;;;;;4995208;28;20230;-75
2022/12/04 19:48:31;;;;;;;21.65;8.35;;;19.70;99.90;;;;;;4995208;28;20222;-76
2022/12/04 19:51:03;;;;;;;20.98;7.05;;;19.50;99.90;;;;;;4995253;28;20202;-76
2022/12/04 19:53:29;;;;;;;20.92;7.95;;;19.50;99.90;;;;;;4994277;28;20261;-76
2022/12/04 19:55:56;;;;;;;19.95;7.43;;;19.50;99.90;;;;;;4995342;28;20202;-76
2022/12/04 19:58:25;;;;;;;18.98;7.60;;;19.50;99.90;;;;;;4994820;28;20701;-77
2022/12/04 20:00:55;;;;;;;19.20;7.57;;;19.50;99.90;;;;;;4995047;28;20210;-76
2022/12/04 20:03:21;;;;;;;17.90;7.15;;;19.60;99.90;;;;;;4995392;28;20206;-77
2022/12/04 20:05:50;;;;;;;18.52;7.78;;;19.50;99.90;;;;;;4994869;28;20233;-76
2022/12/04 20:08:17;;;;;;;18.63;7.53;;;19.50;99.90;;;;;;4994875;28;20233;-76
2022/12/04 20:10:43;;;;;;;22.60;7.47;;;19.50;99.90;;;;;;4994870;28;20202;-77
2022/12/04 20:13:11;;;;;;;24.52;7.60;;;19.50;99.90;;;;;;4994898;28;20198;-76
2022/12/04 20:15:38;;;;;;;20.65;7.32;;;19.50;99.90;;;;;;4994515;28;20597;-77
2022/12/04 20:18:05;;;;;;;18.48;7.25;;;19.40;99.90;;;;;;4994448;28;20230;-75
2022/12/04 20:20:32;;;;;;;21.85;7.03;;;19.50;99.90;;;;;;4994756;28;20260;-77
2022/12/04 20:23:00;;;;;;;14.45;6.97;;;19.40;99.90;;;;;;4994326;28;20670;-76
2022/12/04 20:25:27;;;;;;;13.85;6.75;;;19.50;99.90;;;;;;4994245;28;20692;-77
2022/12/04 20:27:54;;;;;;;11.23;6.55;;;19.40;99.90;;;;;;4994510;28;20222;-76
2022/12/04 20:30:21;;;;;;;16.00;6.72;;;19.40;99.90;;;;;;4994583;28;20209;-76
2022/12/04 20:32:47;;;;;;;14.57;6.53;;;19.30;99.90;;;;;;4994520;28;20338;-76